Time;durP1;ratioP1;P1;durP2;ratioP2;P2;SDS_P1;SDS_P2;PMS_P1;PMS_P2;Temp;Humidity;BMP_temperature;BMP_pressure;BME280_temperature;BME280_humidity;BME280_pressure;Samples;Min_cycle;Max_cycle;Signal;HPM_P1;HPM_P2
2021/06/28 00:00:52;;;;;;;;;;;;;;;22.50;64.00;99535.19;2068567;28;19951;-61
2021/06/28 00:01:52;;;;;;;;;;;;;;;22.49;63.71;99531.59;2071431;28;19954;-61
2021/06/28 00:02:52;;;;;;;;;;;;;;;22.49;63.77;99531.59;2061743;28;20020;-61
2021/06/28 00:03:53;;;;;;;;;;;;;;;22.48;63.96;99527.97;2061724;28;19905;-61
2021/06/28 00:04:53;;;;;;;;;;;;;;;22.47;64.05;99526.28;2070693;28;19920;-61
2021/06/28 00:05:54;;;;;;;;;;;;;;;22.47;64.06;99539.16;2073046;28;19913;-61
2021/06/28 00:06:54;;;;;;;;;;;;;;;22.47;63.99;99541.91;2067495;28;20367;-61
2021/06/28 00:07:54;;;;;;;;;;;;;;;22.48;63.86;99551.84;2074780;28;20243;-61
2021/06/28 00:08:56;;;;;;;;;;;;;;;22.48;63.99;99546.34;2062440;28;19997;-61
2021/06/28 00:09:56;;;;;;;;;;;;;;;22.48;63.89;99551.84;2066894;28;19936;-61
2021/06/28 00:10:57;;;;;;;;;;;;;;;22.48;63.97;99547.19;2070907;28;20428;-61
2021/06/28 00:11:57;;;;;;;;;;;;;;;22.48;63.89;99551.84;2072340;28;19912;-61
2021/06/28 00:12:59;;;;;;;;;;;;;;;22.49;63.82;99550.81;2067410;28;20036;-61
2021/06/28 00:13:59;;;;;;;;;;;;;;;22.48;63.82;99554.59;2071164;28;20482;-61
2021/06/28 00:14:59;;;;;;;;;;;;;;;22.48;64.03;99551.84;2065311;28;20744;-60
2021/06/28 00:16:00;;;;;;;;;;;;;;;22.48;63.82;99549.09;2069859;28;19916;-61
2021/06/28 00:17:00;;;;;;;;;;;;;;;22.48;63.86;99551.84;2071133;28;19963;-60
2021/06/28 00:18:00;;;;;;;;;;;;;;;22.48;63.82;99551.84;2070396;28;19920;-61
2021/06/28 00:19:02;;;;;;;;;;;;;;;22.48;63.83;99549.09;2071014;28;19919;-60
2021/06/28 00:20:04;;;;;;;;;;;;;;;22.47;63.85;99555.66;2072218;28;20360;-61
2021/06/28 00:21:05;;;;;;;;;;;;;;;22.47;63.90;99562.00;2070441;28;19915;-61
2021/06/28 00:22:06;;;;;;;;;;;;;;;22.47;63.91;99561.13;2066378;28;19913;-61
2021/06/28 00:23:06;;;;;;;;;;;;;;;22.48;63.79;99557.34;2068511;28;19923;-61
2021/06/28 00:24:07;;;;;;;;;;;;;;;22.47;64.03;99564.72;2069266;28;20425;-61
2021/06/28 00:25:09;;;;;;;;;;;;;;;22.47;63.87;99559.25;2067912;28;20375;-61
2021/06/28 00:26:09;;;;;;;;;;;;;;;22.47;63.95;99556.50;2070515;28;19938;-61
2021/06/28 00:27:10;;;;;;;;;;;;;;;22.47;63.89;99562.00;2075400;28;20462;-61
2021/06/28 00:28:10;;;;;;;;;;;;;;;22.48;63.82;99562.84;2071918;28;19916;-61
2021/06/28 00:29:10;;;;;;;;;;;;;;;22.47;63.91;99570.22;2070466;28;19913;-60
2021/06/28 00:30:15;;;;;;;;;;;;;;;22.48;63.89;99568.31;2068131;28;19917;-61
2021/06/28 00:31:15;;;;;;;;;;;;;;;22.47;63.85;99566.63;2061562;28;19910;-61
2021/06/28 00:32:16;;;;;;;;;;;;;;;22.47;63.89;99555.66;2061162;28;20137;-61
2021/06/28 00:33:18;;;;;;;;;;;;;;;22.46;63.98;99556.66;2063268;28;20016;-61
2021/06/28 00:34:18;;;;;;;;;;;;;;;22.46;64.01;99559.41;2058368;28;20352;-61
2021/06/28 00:35:20;;;;;;;;;;;;;;;22.47;63.79;99566.63;2062735;28;21582;-61
2021/06/28 00:36:21;;;;;;;;;;;;;;;22.46;63.78;99559.41;2076342;28;19917;-61
2021/06/28 00:37:21;;;;;;;;;;;;;;;22.46;63.84;99560.28;2071673;28;19938;-61
2021/06/28 00:38:22;;;;;;;;;;;;;;;22.46;63.98;99564.91;2066243;28;19913;-61
2021/06/28 00:39:23;;;;;;;;;;;;;;;22.45;63.92;99554.97;2073409;28;19913;-61
2021/06/28 00:40:23;;;;;;;;;;;;;;;22.46;63.70;99548.44;2071060;28;20582;-61
2021/06/28 00:41:24;;;;;;;;;;;;;;;22.46;63.90;99554.78;2070307;28;19913;-61
2021/06/28 00:42:25;;;;;;;;;;;;;;;22.47;63.84;99555.66;2069639;28;19962;-61
2021/06/28 00:43:25;;;;;;;;;;;;;;;22.47;63.68;99561.13;2070691;28;19916;-61
2021/06/28 00:44:26;;;;;;;;;;;;;;;22.47;63.85;99555.66;2071747;28;19916;-61
2021/06/28 00:45:30;;;;;;;;;;;;;;;22.46;63.76;99559.41;2070747;28;19913;-61
2021/06/28 00:46:31;;;;;;;;;;;;;;;22.46;63.79;99560.28;2067170;28;20240;-61
2021/06/28 00:47:31;;;;;;;;;;;;;;;22.46;63.69;99554.78;2069265;28;19956;-61
2021/06/28 00:48:31;;;;;;;;;;;;;;;22.47;63.70;99551.00;2063141;28;19968;-61
2021/06/28 00:49:32;;;;;;;;;;;;;;;22.46;63.71;99549.31;2065823;28;19909;-60
2021/06/28 00:50:34;;;;;;;;;;;;;;;22.46;63.73;99553.91;2068575;28;19912;-61
2021/06/28 00:51:34;;;;;;;;;;;;;;;22.47;63.75;99555.66;2059204;28;20366;-61
2021/06/28 00:52:35;;;;;;;;;;;;;;;22.45;63.82;99553.06;2061352;28;19954;-61
2021/06/28 00:53:35;;;;;;;;;;;;;;;22.46;63.85;99559.41;2061146;28;19905;-61
2021/06/28 00:54:37;;;;;;;;;;;;;;;22.46;63.82;99549.31;2065123;28;19905;-60
2021/06/28 00:55:38;;;;;;;;;;;;;;;22.46;63.77;99551.19;2059683;28;19905;-61
2021/06/28 00:56:38;;;;;;;;;;;;;;;22.44;63.84;99545.88;2055906;28;19909;-61
2021/06/28 00:57:38;;;;;;;;;;;;;;;22.44;63.88;99562.38;2062301;28;20520;-60
2021/06/28 00:58:40;;;;;;;;;;;;;;;22.44;63.82;99551.38;2064014;28;19983;-61
2021/06/28 00:59:41;;;;;;;;;;;;;;;22.44;63.80;99556.88;2065460;28;19936;-61
2021/06/28 01:00:41;;;;;;;;;;;;;;;22.45;63.70;99546.72;2066605;28;20336;-61
2021/06/28 01:01:42;;;;;;;;;;;;;;;22.45;63.69;99552.22;2057593;28;19921;-60
2021/06/28 01:02:42;;;;;;;;;;;;;;;22.46;63.53;99548.44;2059957;28;20369;-61
2021/06/28 01:03:42;;;;;;;;;;;;;;;22.45;63.63;99552.22;2057455;28;20372;-61
2021/06/28 01:04:43;;;;;;;;;;;;;;;22.45;63.67;99546.72;2061717;28;20699;-61
2021/06/28 01:05:43;;;;;;;;;;;;;;;22.44;63.78;99551.38;2062024;28;20273;-61
2021/06/28 01:06:43;;;;;;;;;;;;;;;22.45;63.79;99552.22;2055485;28;19967;-62
2021/06/28 01:07:44;;;;;;;;;;;;;;;22.44;63.74;99545.88;2062217;28;19919;-61
2021/06/28 01:08:44;;;;;;;;;;;;;;;22.45;63.73;99546.72;2057733;28;19941;-61
2021/06/28 01:09:44;;;;;;;;;;;;;;;22.44;63.71;99540.41;2061492;28;19905;-61
2021/06/28 01:10:45;;;;;;;;;;;;;;;22.45;63.71;99541.25;2062892;28;19913;-61
2021/06/28 01:11:46;;;;;;;;;;;;;;;22.44;63.72;99545.00;2059355;28;19913;-61
2021/06/28 01:12:48;;;;;;;;;;;;;;;22.44;63.75;99545.88;2062905;28;19905;-61
2021/06/28 01:13:50;;;;;;;;;;;;;;;22.45;63.76;99541.25;2059650;28;19910;-60
2021/06/28 01:14:50;;;;;;;;;;;;;;;22.45;63.69;99549.47;2054547;28;20006;-60
2021/06/28 01:15:50;;;;;;;;;;;;;;;22.45;63.58;99557.72;2062427;28;19921;-61
2021/06/28 01:16:51;;;;;;;;;;;;;;;22.43;63.56;99555.16;2063886;28;19917;-61
2021/06/28 01:17:52;;;;;;;;;;;;;;;22.44;63.63;99545.88;2054591;28;20336;-61
2021/06/28 01:18:53;;;;;;;;;;;;;;;22.44;63.66;99545.88;2059223;28;19913;-61
2021/06/28 01:19:58;;;;;;;;;;;;;;;22.45;63.69;99546.72;2062477;28;19920;-61
2021/06/28 01:21:00;;;;;;;;;;;;;;;22.45;63.74;99544.00;2055956;28;20447;-61
2021/06/28 01:22:03;;;;;;;;;;;;;;;22.44;63.64;99545.88;2056655;28;19952;-61
2021/06/28 01:23:09;;;;;;;;;;;;;;;22.45;63.55;99552.22;2064186;28;19920;-60
2021/06/28 01:24:10;;;;;;;;;;;;;;;22.45;63.52;99546.72;2062333;28;20431;-61
2021/06/28 01:25:12;;;;;;;;;;;;;;;22.43;63.74;99544.16;2062890;28;20824;-61
2021/06/28 01:26:12;;;;;;;;;;;;;;;22.44;63.63;99545.00;2059133;28;20429;-61
2021/06/28 01:27:13;;;;;;;;;;;;;;;22.45;63.65;99549.47;2055588;28;19977;-61
2021/06/28 01:28:13;;;;;;;;;;;;;;;22.44;63.52;99542.25;2053998;28;20833;-61
2021/06/28 01:29:14;;;;;;;;;;;;;;;22.43;63.47;99549.66;2062983;28;20728;-61
2021/06/28 01:30:16;;;;;;;;;;;;;;;22.44;63.46;99548.63;2069527;28;19920;-61
2021/06/28 01:31:16;;;;;;;;;;;;;;;22.45;63.50;99546.72;2065087;28;19909;-60
2021/06/28 01:32:16;;;;;;;;;;;;;;;22.43;63.61;99559.78;2060424;28;19924;-61
2021/06/28 01:33:17;;;;;;;;;;;;;;;22.43;63.65;99557.03;2058547;28;19905;-60
2021/06/28 01:34:17;;;;;;;;;;;;;;;22.44;63.58;99556.00;2062111;28;19917;-61
2021/06/28 01:35:18;;;;;;;;;;;;;;;22.45;63.61;99560.47;2067682;28;19909;-61
2021/06/28 01:36:18;;;;;;;;;;;;;;;22.44;63.53;99561.47;2060257;28;19921;-61
2021/06/28 01:37:18;;;;;;;;;;;;;;;22.43;63.68;99559.78;2064074;28;20281;-61
2021/06/28 01:38:19;;;;;;;;;;;;;;;22.43;63.56;99554.28;2062995;28;20407;-61
2021/06/28 01:39:19;;;;;;;;;;;;;;;22.43;63.50;99555.16;2066541;28;19915;-61
2021/06/28 01:40:19;;;;;;;;;;;;;;;22.43;63.54;99559.78;2059400;28;20284;-60
2021/06/28 01:41:20;;;;;;;;;;;;;;;22.43;63.48;99559.78;2065444;28;20428;-61
2021/06/28 01:42:21;;;;;;;;;;;;;;;22.42;63.59;99555.34;2055052;28;19937;-61
2021/06/28 01:43:23;;;;;;;;;;;;;;;22.42;63.42;99558.09;2055284;28;19949;-61
2021/06/28 01:44:24;;;;;;;;;;;;;;;22.42;63.50;99558.94;2060508;28;19913;-61
2021/06/28 01:45:24;;;;;;;;;;;;;;;22.43;63.55;99563.38;2065828;28;19913;-61
2021/06/28 01:46:24;;;;;;;;;;;;;;;22.43;63.39;99565.28;2067209;28;19918;-61
2021/06/28 01:47:25;;;;;;;;;;;;;;;22.44;63.58;99561.47;2067670;28;19932;-60
2021/06/28 01:48:26;;;;;;;;;;;;;;;22.42;63.57;99564.44;2063939;28;20608;-60
2021/06/28 01:49:26;;;;;;;;;;;;;;;22.44;63.47;99556.00;2064430;28;20409;-61
2021/06/28 01:50:28;;;;;;;;;;;;;;;22.44;63.50;99556.00;2071028;28;19913;-61
2021/06/28 01:51:28;;;;;;;;;;;;;;;22.43;63.37;99562.53;2070643;28;19913;-62
2021/06/28 01:52:28;;;;;;;;;;;;;;;22.44;63.31;99564.22;2070775;28;19909;-61
2021/06/28 01:53:28;;;;;;;;;;;;;;;22.42;63.43;99563.59;2071327;28;19912;-61
2021/06/28 01:54:29;;;;;;;;;;;;;;;22.43;63.47;99565.28;2069003;28;19936;-61
2021/06/28 01:55:30;;;;;;;;;;;;;;;22.42;63.47;99560.84;2072126;28;19920;-61
2021/06/28 01:56:30;;;;;;;;;;;;;;;22.42;63.29;99558.94;2068725;28;20777;-61
2021/06/28 01:57:30;;;;;;;;;;;;;;;22.43;63.45;99565.28;2071652;28;19999;-61
2021/06/28 01:58:31;;;;;;;;;;;;;;;22.41;63.34;99557.22;2072556;28;19913;-61
2021/06/28 01:59:33;;;;;;;;;;;;;;;22.43;63.41;99559.78;2069786;28;19912;-61
2021/06/28 02:00:33;;;;;;;;;;;;;;;22.41;63.41;99559.97;2073649;28;19912;-60
2021/06/28 02:01:34;;;;;;;;;;;;;;;22.42;63.42;99563.59;2070759;28;19909;-61
2021/06/28 02:02:34;;;;;;;;;;;;;;;22.42;63.29;99569.09;2072720;28;19901;-60
2021/06/28 02:03:35;;;;;;;;;;;;;;;22.41;63.24;99568.19;2071642;28;19905;-61
2021/06/28 02:04:36;;;;;;;;;;;;;;;22.43;63.33;99576.25;2071445;28;20295;-61
2021/06/28 02:05:43;;;;;;;;;;;;;;;22.42;63.43;99569.09;2069716;28;20276;-61
2021/06/28 02:06:43;;;;;;;;;;;;;;;22.43;63.23;99565.28;2071470;28;19959;-61
2021/06/28 02:07:44;;;;;;;;;;;;;;;22.44;63.32;99561.47;2069961;28;20032;-61
2021/06/28 02:08:44;;;;;;;;;;;;;;;22.41;63.17;99567.34;2069361;28;19905;-61
2021/06/28 02:09:44;;;;;;;;;;;;;;;22.42;63.34;99569.09;2055225;28;19913;-61
2021/06/28 02:10:48;;;;;;;;;;;;;;;22.41;63.35;99564.59;2055148;28;19901;-61
2021/06/28 02:11:49;;;;;;;;;;;;;;;22.42;63.32;99566.34;2067674;28;20050;-61
2021/06/28 02:12:49;;;;;;;;;;;;;;;22.41;63.39;99564.59;2065826;28;19991;-61
2021/06/28 02:13:50;;;;;;;;;;;;;;;22.41;63.39;99561.88;2071806;28;19913;-61
2021/06/28 02:14:50;;;;;;;;;;;;;;;22.41;63.35;99561.88;2070452;28;19905;-61
2021/06/28 02:15:52;;;;;;;;;;;;;;;22.40;63.31;99562.91;2063324;28;20012;-60
2021/06/28 02:16:52;;;;;;;;;;;;;;;22.41;63.33;99561.88;2066193;28;20007;-61
2021/06/28 02:17:53;;;;;;;;;;;;;;;22.40;63.32;99561.00;2063873;28;20027;-60
2021/06/28 02:18:53;;;;;;;;;;;;;;;22.40;63.28;99560.16;2063205;28;19932;-61
2021/06/28 02:19:53;;;;;;;;;;;;;;;22.40;63.21;99551.94;2063975;28;19914;-61
2021/06/28 02:20:55;;;;;;;;;;;;;;;22.42;63.26;99555.34;2071733;28;20363;-61
2021/06/28 02:21:56;;;;;;;;;;;;;;;22.41;63.10;99548.13;2070512;28;20471;-61
2021/06/28 02:23:10;;;;;;;;;;;;;;;22.41;63.13;99548.97;2071981;28;19917;-61
2021/06/28 02:24:10;;;;;;;;;;;;;;;22.40;63.11;99549.19;2070917;28;20514;-61
2021/06/28 02:25:11;;;;;;;;;;;;;;;22.41;63.26;99545.38;2069807;28;19924;-61
2021/06/28 02:26:12;;;;;;;;;;;;;;;22.41;63.23;99550.88;2066655;28;19920;-61
2021/06/28 02:27:13;;;;;;;;;;;;;;;22.41;63.15;99545.38;2070132;28;19913;-61
2021/06/28 02:28:13;;;;;;;;;;;;;;;22.40;63.10;99544.53;2071899;28;20055;-61
2021/06/28 02:29:13;;;;;;;;;;;;;;;22.40;63.15;99541.78;2070374;28;19917;-61
2021/06/28 02:30:17;;;;;;;;;;;;;;;22.40;63.26;99546.44;2071139;28;19913;-61
2021/06/28 02:31:20;;;;;;;;;;;;;;;22.40;63.11;99550.03;2060723;28;19906;-61
2021/06/28 02:32:20;;;;;;;;;;;;;;;22.40;63.10;99550.03;2059136;28;19913;-61
2021/06/28 02:33:20;;;;;;;;;;;;;;;22.39;63.12;99558.44;2071006;28;20628;-61
2021/06/28 02:34:21;;;;;;;;;;;;;;;22.40;63.19;99563.75;2072027;28;20551;-61
2021/06/28 02:35:22;;;;;;;;;;;;;;;22.40;63.04;99560.16;2068510;28;19913;-61
2021/06/28 02:36:22;;;;;;;;;;;;;;;22.39;63.20;99553.84;2077465;28;20426;-61
2021/06/28 02:37:23;;;;;;;;;;;;;;;22.39;63.32;99555.69;2071784;28;20728;-61
2021/06/28 02:38:23;;;;;;;;;;;;;;;22.40;63.12;99549.19;2074366;28;20004;-61
2021/06/28 02:39:24;;;;;;;;;;;;;;;22.40;63.05;99554.69;2066348;28;19913;-61
2021/06/28 02:40:24;;;;;;;;;;;;;;;22.40;63.28;99549.19;2072485;28;19913;-60
2021/06/28 02:41:24;;;;;;;;;;;;;;;22.39;63.10;99552.94;2074500;28;20561;-61
2021/06/28 02:42:25;;;;;;;;;;;;;;;22.39;63.19;99548.34;2068963;28;19917;-61
2021/06/28 02:43:25;;;;;;;;;;;;;;;22.41;63.20;99556.38;2075377;28;19909;-61
2021/06/28 02:44:25;;;;;;;;;;;;;;;22.41;63.01;99550.88;2071109;28;19909;-61
2021/06/28 02:45:26;;;;;;;;;;;;;;;22.40;63.02;99554.69;2071151;28;19912;-61
2021/06/28 02:46:26;;;;;;;;;;;;;;;22.40;62.96;99552.78;2070610;28;20576;-61
2021/06/28 02:47:27;;;;;;;;;;;;;;;22.39;63.09;99547.47;2066213;28;19922;-61
2021/06/28 02:48:27;;;;;;;;;;;;;;;22.40;63.11;99543.69;2068693;28;19960;-60
2021/06/28 02:49:27;;;;;;;;;;;;;;;22.40;63.10;99541.78;2064677;28;19909;-60
2021/06/28 02:50:28;;;;;;;;;;;;;;;22.39;63.01;99542.84;2066813;28;19913;-61
2021/06/28 02:51:28;;;;;;;;;;;;;;;22.40;62.94;99554.69;2063310;28;19917;-61
2021/06/28 02:52:28;;;;;;;;;;;;;;;22.39;63.16;99550.19;2067691;28;20160;-61
2021/06/28 02:53:29;;;;;;;;;;;;;;;22.40;63.12;99549.19;2065806;28;19913;-61
2021/06/28 02:54:30;;;;;;;;;;;;;;;22.40;63.17;99549.19;2064103;28;19906;-61
2021/06/28 02:55:31;;;;;;;;;;;;;;;22.39;63.09;99552.94;2065120;28;20671;-60
2021/06/28 02:56:31;;;;;;;;;;;;;;;22.40;62.99;99554.69;2061339;28;20452;-61
2021/06/28 02:57:31;;;;;;;;;;;;;;;22.39;63.07;99559.31;2061087;28;20737;-61
2021/06/28 02:58:31;;;;;;;;;;;;;;;22.39;62.93;99547.47;2062910;28;19916;-61
2021/06/28 02:59:32;;;;;;;;;;;;;;;22.39;63.02;99552.94;2055022;28;20531;-61
2021/06/28 03:00:32;;;;;;;;;;;;;;;22.39;62.91;99550.19;2057615;28;20417;-61
2021/06/28 03:01:32;;;;;;;;;;;;;;;22.39;63.10;99550.19;2056446;28;19913;-61
2021/06/28 03:02:33;;;;;;;;;;;;;;;22.38;63.04;99545.75;2055765;28;20185;-61
2021/06/28 03:03:33;;;;;;;;;;;;;;;22.38;63.02;99552.09;2058276;28;19913;-61
2021/06/28 03:04:33;;;;;;;;;;;;;;;22.38;63.01;99543.88;2058597;28;19952;-61
2021/06/28 03:05:34;;;;;;;;;;;;;;;22.38;62.88;99548.50;2055868;28;19939;-61
2021/06/28 03:06:34;;;;;;;;;;;;;;;22.39;63.12;99552.94;2053544;28;20022;-61
2021/06/28 03:07:35;;;;;;;;;;;;;;;22.38;62.88;99548.50;2049352;28;20666;-61
2021/06/28 03:08:35;;;;;;;;;;;;;;;22.38;62.91;99552.09;2054552;28;19913;-61
2021/06/28 03:09:35;;;;;;;;;;;;;;;22.38;62.94;99545.75;2064969;28;20144;-61
2021/06/28 03:10:36;;;;;;;;;;;;;;;22.37;62.91;99544.91;2062382;28;20078;-61
2021/06/28 03:11:36;;;;;;;;;;;;;;;22.38;62.97;99546.59;2059824;28;20306;-61
2021/06/28 03:12:36;;;;;;;;;;;;;;;22.38;63.05;99540.28;2056188;28;20333;-60
2021/06/28 03:13:38;;;;;;;;;;;;;;;22.37;62.89;99550.41;2057140;28;19917;-61
2021/06/28 03:14:39;;;;;;;;;;;;;;;22.38;62.94;99546.59;2063433;28;19910;-61
2021/06/28 03:15:39;;;;;;;;;;;;;;;22.38;62.93;99546.59;2063573;28;19905;-61
2021/06/28 03:16:39;;;;;;;;;;;;;;;22.38;62.77;99546.59;2061034;28;19918;-61
2021/06/28 03:17:40;;;;;;;;;;;;;;;22.38;62.93;99551.25;2061771;28;19909;-61
2021/06/28 03:18:40;;;;;;;;;;;;;;;22.39;62.98;99552.94;2062704;28;19909;-61
2021/06/28 03:19:41;;;;;;;;;;;;;;;22.37;62.89;99547.66;2061096;28;20029;-61
2021/06/28 03:20:41;;;;;;;;;;;;;;;22.38;62.94;99557.59;2062699;28;20030;-61
2021/06/28 03:21:41;;;;;;;;;;;;;;;22.38;62.96;99556.75;2063145;28;19913;-61
2021/06/28 03:22:43;;;;;;;;;;;;;;;22.37;62.81;99555.91;2064090;28;20337;-61
2021/06/28 03:23:44;;;;;;;;;;;;;;;22.37;62.94;99558.66;2061924;28;21094;-61
2021/06/28 03:24:44;;;;;;;;;;;;;;;22.38;62.97;99559.50;2067513;28;20103;-61
2021/06/28 03:25:44;;;;;;;;;;;;;;;22.38;62.88;99554.00;2062967;28;20008;-61
2021/06/28 03:26:45;;;;;;;;;;;;;;;22.37;62.91;99558.66;2060665;28;19920;-61
2021/06/28 03:27:45;;;;;;;;;;;;;;;22.38;62.76;99559.50;2062802;28;20145;-61
2021/06/28 03:28:46;;;;;;;;;;;;;;;22.38;62.92;99556.75;2065603;28;20170;-61
2021/06/28 03:29:46;;;;;;;;;;;;;;;22.37;62.70;99550.41;2063207;28;19952;-61
2021/06/28 03:30:46;;;;;;;;;;;;;;;22.37;62.67;99555.06;2063599;28;19910;-61
2021/06/28 03:31:47;;;;;;;;;;;;;;;22.37;62.77;99546.81;2060957;28;20144;-61
2021/06/28 03:32:47;;;;;;;;;;;;;;;22.37;62.80;99553.16;2061343;28;19956;-61
2021/06/28 03:33:47;;;;;;;;;;;;;;;22.38;62.87;99556.75;2061719;28;19943;-61
2021/06/28 03:34:48;;;;;;;;;;;;;;;22.37;62.61;99555.06;2063061;28;19917;-61
2021/06/28 03:35:48;;;;;;;;;;;;;;;22.38;62.85;99562.25;2061215;28;19914;-61
2021/06/28 03:36:48;;;;;;;;;;;;;;;22.38;62.73;99559.50;2063905;28;19920;-61
2021/06/28 03:37:49;;;;;;;;;;;;;;;22.37;62.70;99555.91;2063772;28;19940;-61
2021/06/28 03:38:49;;;;;;;;;;;;;;;22.37;62.62;99557.78;2062270;28;19914;-61
2021/06/28 03:39:49;;;;;;;;;;;;;;;22.37;62.72;99560.53;2054478;28;20388;-61
2021/06/28 03:40:50;;;;;;;;;;;;;;;22.38;62.80;99554.00;2053001;28;20089;-61
2021/06/28 03:41:50;;;;;;;;;;;;;;;22.37;62.77;99555.06;2063387;28;19935;-61
2021/06/28 03:42:50;;;;;;;;;;;;;;;22.36;62.81;99550.59;2062184;28;19932;-61
2021/06/28 03:43:51;;;;;;;;;;;;;;;22.37;62.78;99555.06;2062067;28;20052;-61
2021/06/28 03:44:51;;;;;;;;;;;;;;;22.36;62.70;99553.31;2068357;28;19959;-61
2021/06/28 03:45:51;;;;;;;;;;;;;;;22.37;62.69;99549.56;2065228;28;20392;-61
2021/06/28 03:46:52;;;;;;;;;;;;;;;22.36;62.65;99548.69;2067663;28;20608;-61
2021/06/28 03:47:52;;;;;;;;;;;;;;;22.36;62.80;99548.69;2069774;28;19996;-61
2021/06/28 03:48:52;;;;;;;;;;;;;;;22.37;62.59;99546.81;2068543;28;19909;-61
2021/06/28 03:49:53;;;;;;;;;;;;;;;22.36;62.68;99545.09;2075715;28;19952;-61
2021/06/28 03:50:53;;;;;;;;;;;;;;;22.35;62.71;99532.41;2068056;28;20374;-61
2021/06/28 03:51:54;;;;;;;;;;;;;;;22.36;62.68;99536.84;2071142;28;20382;-60
2021/06/28 03:52:55;;;;;;;;;;;;;;;22.35;62.73;99537.91;2061595;28;19987;-60
2021/06/28 03:53:55;;;;;;;;;;;;;;;22.36;62.65;99536.84;2061534;28;20420;-61
2021/06/28 03:54:55;;;;;;;;;;;;;;;22.35;62.59;99535.16;2069959;28;19905;-61
2021/06/28 03:55:56;;;;;;;;;;;;;;;22.35;62.72;99536.00;2061581;28;19964;-61
2021/06/28 03:56:56;;;;;;;;;;;;;;;22.35;62.76;99537.91;2062368;28;19920;-61
2021/06/28 03:57:57;;;;;;;;;;;;;;;22.35;62.49;99541.50;2070415;28;19904;-61
2021/06/28 03:58:57;;;;;;;;;;;;;;;22.34;62.59;99537.06;2068360;28;19964;-61
2021/06/28 03:59:59;;;;;;;;;;;;;;;22.34;62.61;99537.06;2069495;28;19913;-61
2021/06/28 04:01:01;;;;;;;;;;;;;;;22.35;62.59;99532.41;2071882;28;19917;-61
2021/06/28 04:02:01;;;;;;;;;;;;;;;22.36;62.59;99531.34;2076480;28;19911;-61
2021/06/28 04:03:03;;;;;;;;;;;;;;;22.36;62.39;99531.34;2071614;28;19947;-61
2021/06/28 04:04:03;;;;;;;;;;;;;;;22.35;62.64;99529.66;2069821;28;19905;-61
2021/06/28 04:05:05;;;;;;;;;;;;;;;22.35;62.57;99524.19;2069774;28;19913;-61
2021/06/28 04:06:06;;;;;;;;;;;;;;;22.35;62.39;99521.44;2069070;28;20273;-61
2021/06/28 04:07:06;;;;;;;;;;;;;;;22.35;62.59;99525.03;2070353;28;20854;-61
2021/06/28 04:08:07;;;;;;;;;;;;;;;22.35;62.39;99524.19;2070334;28;20279;-61
2021/06/28 04:09:07;;;;;;;;;;;;;;;22.34;62.41;99523.31;2067547;28;19916;-61
2021/06/28 04:10:08;;;;;;;;;;;;;;;22.34;62.52;99522.44;2065261;28;19971;-61
2021/06/28 04:11:08;;;;;;;;;;;;;;;22.36;62.51;99528.63;2067920;28;20342;-61
2021/06/28 04:12:31;;;;;;;;;;;;;;;22.36;62.33;99525.88;2076603;28;19919;-61
2021/06/28 04:13:31;;;;;;;;;;;;;;;22.34;62.36;99516.97;2073716;28;19905;-61
2021/06/28 04:14:31;;;;;;;;;;;;;;;22.35;62.27;99521.44;2075357;28;19913;-61
2021/06/28 04:15:32;;;;;;;;;;;;;;;22.35;62.52;99524.19;2060647;28;19964;-60
2021/06/28 04:16:32;;;;;;;;;;;;;;;22.34;62.43;99527.94;2067724;28;19917;-61
2021/06/28 04:17:32;;;;;;;;;;;;;;;22.34;62.59;99530.69;2072248;28;19913;-61
2021/06/28 04:18:33;;;;;;;;;;;;;;;22.34;62.50;99527.94;2060888;28;19910;-61
2021/06/28 04:19:33;;;;;;;;;;;;;;;22.32;62.42;99525.41;2061659;28;19913;-61
2021/06/28 04:20:33;;;;;;;;;;;;;;;22.33;62.52;99526.25;2072005;28;19913;-61
2021/06/28 04:21:34;;;;;;;;;;;;;;;22.32;62.50;99530.00;2071066;28;19984;-61
2021/06/28 04:22:35;;;;;;;;;;;;;;;22.34;62.30;99525.19;2069478;28;19908;-61
2021/06/28 04:23:36;;;;;;;;;;;;;;;22.34;62.46;99522.44;2068198;28;19913;-61
2021/06/28 04:24:36;;;;;;;;;;;;;;;22.33;62.28;99520.75;2069692;28;19917;-61
2021/06/28 04:25:37;;;;;;;;;;;;;;;22.33;62.45;99521.59;2073559;28;19919;-61
2021/06/28 04:26:37;;;;;;;;;;;;;;;22.33;62.44;99515.25;2072348;28;19931;-61
2021/06/28 04:27:37;;;;;;;;;;;;;;;22.34;62.41;99522.44;2070860;28;20525;-61
2021/06/28 04:28:38;;;;;;;;;;;;;;;22.34;62.27;99522.44;2070225;28;19920;-61
2021/06/28 04:29:39;;;;;;;;;;;;;;;22.33;62.44;99523.50;2070293;28;19931;-60
2021/06/28 04:30:40;;;;;;;;;;;;;;;22.33;62.17;99527.09;2067803;28;19913;-60
2021/06/28 04:31:40;;;;;;;;;;;;;;;22.35;62.27;99529.66;2070836;28;19952;-61
2021/06/28 04:32:41;;;;;;;;;;;;;;;22.34;62.33;99525.19;2075194;28;19915;-61
2021/06/28 04:33:41;;;;;;;;;;;;;;;22.34;62.20;99533.44;2074404;28;19913;-61
2021/06/28 04:34:44;;;;;;;;;;;;;;;22.34;62.19;99527.94;2070699;28;19935;-61
2021/06/28 04:35:44;;;;;;;;;;;;;;;22.34;62.32;99527.94;2069826;28;20435;-61
2021/06/28 04:36:45;;;;;;;;;;;;;;;22.34;62.34;99527.94;2071263;28;20071;-61
2021/06/28 04:37:45;;;;;;;;;;;;;;;22.33;62.28;99520.75;2066578;28;19932;-60
2021/06/28 04:38:46;;;;;;;;;;;;;;;22.33;62.18;99518.84;2070320;28;19921;-61
2021/06/28 04:39:46;;;;;;;;;;;;;;;22.34;62.19;99516.97;2065841;28;19905;-61
2021/06/28 04:40:48;;;;;;;;;;;;;;;22.33;62.19;99521.59;2064020;28;19991;-61
2021/06/28 04:41:48;;;;;;;;;;;;;;;22.34;62.30;99519.69;2061624;28;19907;-61
2021/06/28 04:42:49;;;;;;;;;;;;;;;22.32;62.31;99521.78;2058230;28;19976;-61
2021/06/28 04:43:49;;;;;;;;;;;;;;;22.32;62.27;99522.66;2067502;28;19910;-61
2021/06/28 04:44:49;;;;;;;;;;;;;;;22.32;62.11;99524.53;2071012;28;19909;-61
2021/06/28 04:45:50;;;;;;;;;;;;;;;22.32;61.98;99519.91;2069901;28;19919;-61
2021/06/28 04:46:50;;;;;;;;;;;;;;;22.33;62.12;99526.25;2068439;28;19948;-61
2021/06/28 04:47:51;;;;;;;;;;;;;;;22.32;62.21;99525.41;2071386;28;19960;-61
2021/06/28 04:48:51;;;;;;;;;;;;;;;22.33;61.95;99520.75;2071582;28;19950;-61
2021/06/28 04:49:51;;;;;;;;;;;;;;;22.33;62.12;99523.50;2070481;28;19917;-61
2021/06/28 04:50:52;;;;;;;;;;;;;;;22.32;62.08;99522.66;2065732;28;20368;-61
2021/06/28 04:51:52;;;;;;;;;;;;;;;22.33;62.20;99515.25;2069870;28;20575;-61
2021/06/28 04:52:53;;;;;;;;;;;;;;;22.33;61.97;99515.25;2072289;28;19913;-61
2021/06/28 04:53:54;;;;;;;;;;;;;;;22.32;61.94;99519.03;2066458;28;19913;-61
2021/06/28 04:54:54;;;;;;;;;;;;;;;22.31;61.99;99517.34;2069035;28;19963;-61
2021/06/28 04:55:54;;;;;;;;;;;;;;;22.33;62.12;99520.75;2064500;28;19917;-61
2021/06/28 04:56:55;;;;;;;;;;;;;;;22.32;61.91;99517.16;2073824;28;19958;-61
2021/06/28 04:57:55;;;;;;;;;;;;;;;22.32;61.90;99521.78;2067419;28;19909;-62
2021/06/28 04:58:56;;;;;;;;;;;;;;;22.31;62.10;99520.94;2072164;28;20643;-61
2021/06/28 04:59:56;;;;;;;;;;;;;;;22.32;61.91;99524.53;2067893;28;19996;-60
2021/06/28 05:00:56;;;;;;;;;;;;;;;22.32;61.92;99519.03;2062200;28;20031;-61
2021/06/28 05:01:57;;;;;;;;;;;;;;;22.31;61.95;99522.81;2068099;28;20023;-61
2021/06/28 05:02:57;;;;;;;;;;;;;;;22.32;61.88;99521.78;2070812;28;19916;-60
2021/06/28 05:03:57;;;;;;;;;;;;;;;22.32;62.00;99519.03;2065857;28;19917;-61
2021/06/28 05:04:58;;;;;;;;;;;;;;;22.32;61.83;99521.78;2068174;28;19975;-61
2021/06/28 05:05:58;;;;;;;;;;;;;;;22.31;61.82;99523.69;2062690;28;19983;-61
2021/06/28 05:06:58;;;;;;;;;;;;;;;22.31;62.04;99520.09;2071245;28;19920;-61
2021/06/28 05:07:58;;;;;;;;;;;;;;;22.31;62.03;99522.81;2065002;28;19920;-61
2021/06/28 05:08:59;;;;;;;;;;;;;;;22.31;62.03;99523.69;2073749;28;19908;-61
2021/06/28 05:09:59;;;;;;;;;;;;;;;22.31;61.89;99520.09;2072924;28;19913;-61
2021/06/28 05:11:00;;;;;;;;;;;;;;;22.31;61.83;99526.41;2069896;28;19947;-61
2021/06/28 05:12:00;;;;;;;;;;;;;;;22.31;62.03;99531.06;2071240;28;20117;-61
2021/06/28 05:13:00;;;;;;;;;;;;;;;22.31;61.96;99528.31;2076477;28;19936;-61
2021/06/28 05:14:01;;;;;;;;;;;;;;;22.31;61.82;99533.81;2070728;28;19985;-61
2021/06/28 05:15:01;;;;;;;;;;;;;;;22.31;61.90;99540.16;2070402;28;19938;-61
2021/06/28 05:16:02;;;;;;;;;;;;;;;22.31;62.04;99533.81;2072013;28;19960;-61
2021/06/28 05:17:02;;;;;;;;;;;;;;;22.32;61.80;99541.00;2070464;28;19913;-61